KFS379 KSLC-KLAX
Flight info
| Callsign | KFS379 |
|---|---|
| Flight time | 1h 23m |
| Altitude | 34000 |
| Route | ZIONZ1 EHK LAKRR Q73 HAKMN ANJLL4 |
| Aircraft | B77L/H-SDE1E2E3FGHIJ2J3J4J5M1RWXY/LB1D1 |
Departure
| Time | 2026-04-21 02:36 |
|---|---|
| Airport | Salt Lake City International Airport (KSLC) |
Arrival
| Time | 2026-04-21 04:00 |
|---|---|
| Airport | Los Angeles International Airport (KLAX) |
| Time | Latitude | Longitude | Altitude | Speed | Heading |
|---|---|---|---|---|---|
| 2026-04-21 02:12 | 40.80512 | -111.98428 | 4237 ft | 0 kts | 174° |
| 2026-04-21 02:27 | 40.80523 | -111.98430 | 4236 ft | 2 kts | 163° |
| 2026-04-21 02:27 | 40.80543 | -111.98442 | 4236 ft | 5 kts | 150° |
| 2026-04-21 02:28 | 40.80571 | -111.98468 | 4237 ft | 5 kts | 114° |
| 2026-04-21 02:28 | 40.80574 | -111.98481 | 4235 ft | 0 kts | 95° |
| 2026-04-21 02:29 | 40.80574 | -111.98478 | 4235 ft | 0 kts | 95° |
| 2026-04-21 02:33 | 40.80581 | -111.98402 | 4237 ft | 12 kts | 77° |
| 2026-04-21 02:34 | 40.80600 | -111.98295 | 4237 ft | 12 kts | 77° |
| 2026-04-21 02:34 | 40.80619 | -111.98180 | 4237 ft | 17 kts | 77° |
| 2026-04-21 02:34 | 40.80694 | -111.98052 | 4236 ft | 18 kts | 46° |
| 2026-04-21 02:34 | 40.80743 | -111.97907 | 4235 ft | 18 kts | 85° |
| 2026-04-21 02:35 | 40.80745 | -111.97883 | 4235 ft | 5 kts | 85° |
| 2026-04-21 02:35 | 40.80728 | -111.97734 | 4233 ft | 24 kts | 120° |
| 2026-04-21 02:35 | 40.80573 | -111.97668 | 4238 ft | 28 kts | 173° |
| 2026-04-21 02:35 | 40.80224 | -111.97627 | 4240 ft | 87 kts | 175° |
| 2026-04-21 02:36 | 40.79347 | -111.97526 | 4231 ft | 164 kts | 174° |
| 2026-04-21 02:36 | 40.78019 | -111.97343 | 4466 ft | 201 kts | 173° |
| 2026-04-21 02:36 | 40.76694 | -111.97147 | 5539 ft | 191 kts | 174° |
| 2026-04-21 02:36 | 40.75311 | -111.96972 | 5870 ft | 206 kts | 174° |
| 2026-04-21 02:37 | 40.73835 | -111.96797 | 5980 ft | 221 kts | 175° |
| 2026-04-21 02:37 | 40.72257 | -111.96598 | 6287 ft | 236 kts | 175° |
| 2026-04-21 02:37 | 40.70545 | -111.96366 | 7212 ft | 260 kts | 175° |
| 2026-04-21 02:37 | 40.68685 | -111.96107 | 8037 ft | 272 kts | 175° |
| 2026-04-21 02:38 | 40.66838 | -111.95841 | 8652 ft | 267 kts | 175° |
| 2026-04-21 02:38 | 40.64954 | -111.95562 | 9057 ft | 279 kts | 175° |
| 2026-04-21 02:38 | 40.63026 | -111.95271 | 9030 ft | 275 kts | 175° |
| 2026-04-21 02:38 | 40.61157 | -111.94991 | 9287 ft | 262 kts | 175° |
| 2026-04-21 02:39 | 40.59327 | -111.94726 | 9906 ft | 273 kts | 175° |
| 2026-04-21 02:39 | 40.57412 | -111.94402 | 10467 ft | 281 kts | 174° |
| 2026-04-21 02:39 | 40.55458 | -111.94014 | 11157 ft | 286 kts | 174° |
| 2026-04-21 02:39 | 40.53478 | -111.93651 | 11839 ft | 287 kts | 175° |
| 2026-04-21 02:40 | 40.51468 | -111.93340 | 12250 ft | 297 kts | 176° |
| 2026-04-21 02:40 | 40.49412 | -111.93053 | 12206 ft | 295 kts | 176° |
| 2026-04-21 02:40 | 40.47378 | -111.92746 | 12191 ft | 293 kts | 175° |
| 2026-04-21 02:40 | 40.45351 | -111.92383 | 12217 ft | 297 kts | 174° |
| 2026-04-21 02:41 | 40.43292 | -111.91978 | 12222 ft | 301 kts | 173° |
| 2026-04-21 02:41 | 40.41184 | -111.91556 | 12650 ft | 311 kts | 174° |
| 2026-04-21 02:41 | 40.39021 | -111.91144 | 13380 ft | 316 kts | 174° |
| 2026-04-21 02:41 | 40.36832 | -111.91009 | 14043 ft | 317 kts | 185° |
| 2026-04-21 02:42 | 40.34659 | -111.91316 | 14744 ft | 319 kts | 189° |
| 2026-04-21 02:42 | 40.32426 | -111.91753 | 15514 ft | 321 kts | 190° |
| 2026-04-21 02:42 | 40.30210 | -111.92199 | 16210 ft | 323 kts | 188° |
| 2026-04-21 02:42 | 40.27963 | -111.92481 | 16594 ft | 327 kts | 193° |
| 2026-04-21 02:43 | 40.25740 | -111.93229 | 17153 ft | 332 kts | 197° |
| 2026-04-21 02:43 | 40.23531 | -111.94012 | 17893 ft | 335 kts | 195° |
| 2026-04-21 02:43 | 40.21247 | -111.94649 | 18602 ft | 337 kts | 192° |
| 2026-04-21 02:43 | 40.18911 | -111.95124 | 19185 ft | 342 kts | 190° |
| 2026-04-21 02:44 | 40.16529 | -111.95518 | 19746 ft | 347 kts | 189° |
| 2026-04-21 02:44 | 40.14113 | -111.95894 | 20321 ft | 351 kts | 189° |
| 2026-04-21 02:44 | 40.11667 | -111.96263 | 20905 ft | 355 kts | 189° |
| 2026-04-21 02:44 | 40.09198 | -111.96624 | 21464 ft | 360 kts | 189° |
| 2026-04-21 02:45 | 40.06693 | -111.96988 | 21979 ft | 364 kts | 189° |
| 2026-04-21 02:45 | 40.04159 | -111.97356 | 22491 ft | 370 kts | 189° |
| 2026-04-21 02:45 | 40.01576 | -111.97732 | 22971 ft | 377 kts | 189° |
| 2026-04-21 02:45 | 39.98945 | -111.98116 | 23485 ft | 382 kts | 189° |
| 2026-04-21 02:46 | 39.96287 | -111.98503 | 23983 ft | 386 kts | 189° |
| 2026-04-21 02:46 | 39.93614 | -111.98893 | 24509 ft | 388 kts | 189° |
| 2026-04-21 02:46 | 39.90920 | -111.99285 | 25035 ft | 390 kts | 189° |
| 2026-04-21 02:46 | 39.88212 | -111.99679 | 25532 ft | 394 kts | 189° |
| 2026-04-21 02:47 | 39.85473 | -112.00079 | 26014 ft | 397 kts | 189° |
| 2026-04-21 02:47 | 39.82704 | -112.00482 | 26480 ft | 401 kts | 188° |
| 2026-04-21 02:47 | 39.79923 | -112.00887 | 26969 ft | 404 kts | 188° |
| 2026-04-21 02:47 | 39.77115 | -112.01295 | 27477 ft | 407 kts | 188° |
| 2026-04-21 02:48 | 39.74328 | -112.01700 | 27962 ft | 410 kts | 188° |
| 2026-04-21 02:48 | 39.71478 | -112.02113 | 28443 ft | 413 kts | 188° |
| 2026-04-21 02:48 | 39.68610 | -112.02529 | 28922 ft | 416 kts | 188° |
| 2026-04-21 02:48 | 39.65720 | -112.02948 | 29390 ft | 419 kts | 188° |
| 2026-04-21 02:49 | 39.62813 | -112.03369 | 29858 ft | 422 kts | 188° |
| 2026-04-21 02:49 | 39.59880 | -112.03794 | 30253 ft | 426 kts | 188° |
| 2026-04-21 02:49 | 39.56925 | -112.04221 | 30625 ft | 429 kts | 188° |
| 2026-04-21 02:49 | 39.53953 | -112.04650 | 30998 ft | 431 kts | 188° |
| 2026-04-21 02:50 | 39.50960 | -112.05082 | 31363 ft | 434 kts | 188° |
| 2026-04-21 02:50 | 39.48968 | -112.05369 | 31601 ft | 436 kts | 188° |
| 2026-04-21 02:50 | 39.45944 | -112.05805 | 31950 ft | 438 kts | 188° |
| 2026-04-21 02:50 | 39.42907 | -112.06239 | 32287 ft | 441 kts | 187° |
| 2026-04-21 02:51 | 39.39842 | -112.06673 | 32584 ft | 444 kts | 187° |
| 2026-04-21 02:51 | 39.36765 | -112.07109 | 32892 ft | 447 kts | 187° |
| 2026-04-21 02:51 | 39.33661 | -112.07549 | 33232 ft | 449 kts | 187° |
| 2026-04-21 02:51 | 39.30551 | -112.07990 | 33550 ft | 451 kts | 187° |
| 2026-04-21 02:52 | 39.27419 | -112.08435 | 33819 ft | 455 kts | 187° |
| 2026-04-21 02:52 | 39.21035 | -112.09339 | 33953 ft | 467 kts | 187° |
| 2026-04-21 02:53 | 39.14552 | -112.10693 | 33982 ft | 477 kts | 197° |
| 2026-04-21 02:53 | 39.08342 | -112.13940 | 34004 ft | 486 kts | 209° |
| 2026-04-21 02:54 | 39.02463 | -112.18281 | 34012 ft | 487 kts | 210° |
| 2026-04-21 02:54 | 38.96634 | -112.22612 | 34038 ft | 487 kts | 210° |
| 2026-04-21 02:55 | 38.90741 | -112.26928 | 34037 ft | 487 kts | 210° |
| 2026-04-21 02:55 | 38.84840 | -112.31209 | 34032 ft | 487 kts | 210° |
| 2026-04-21 02:56 | 38.78936 | -112.35478 | 34016 ft | 488 kts | 209° |
| 2026-04-21 02:56 | 38.70067 | -112.41878 | 34001 ft | 488 kts | 209° |
| 2026-04-21 02:57 | 38.64164 | -112.46129 | 33973 ft | 485 kts | 209° |
| 2026-04-21 02:57 | 38.58337 | -112.50318 | 33979 ft | 480 kts | 209° |
| 2026-04-21 02:58 | 38.52468 | -112.54530 | 33983 ft | 487 kts | 209° |
| 2026-04-21 02:58 | 38.46538 | -112.58776 | 33990 ft | 491 kts | 209° |
| 2026-04-21 02:59 | 38.40575 | -112.63038 | 33990 ft | 491 kts | 209° |
| 2026-04-21 02:59 | 38.34681 | -112.67244 | 33995 ft | 486 kts | 209° |
| 2026-04-21 03:00 | 38.28789 | -112.71439 | 34004 ft | 484 kts | 209° |
| 2026-04-21 03:00 | 38.22925 | -112.75608 | 33998 ft | 482 kts | 209° |
| 2026-04-21 03:01 | 38.17031 | -112.79788 | 34001 ft | 487 kts | 209° |
| 2026-04-21 03:01 | 38.11108 | -112.83983 | 33984 ft | 487 kts | 209° |
| 2026-04-21 03:02 | 38.05195 | -112.88163 | 33971 ft | 485 kts | 209° |
| 2026-04-21 03:02 | 37.99322 | -112.92307 | 33972 ft | 482 kts | 209° |
| 2026-04-21 03:03 | 37.93466 | -112.96431 | 34016 ft | 481 kts | 209° |
| 2026-04-21 03:03 | 37.87624 | -113.00538 | 34062 ft | 487 kts | 209° |
| 2026-04-21 03:04 | 37.81634 | -113.04743 | 34087 ft | 490 kts | 209° |
| 2026-04-21 03:04 | 37.75701 | -113.08938 | 34091 ft | 491 kts | 210° |
| 2026-04-21 03:05 | 37.69808 | -113.13263 | 34092 ft | 485 kts | 210° |
| 2026-04-21 03:05 | 37.64030 | -113.17527 | 34084 ft | 479 kts | 210° |
| 2026-04-21 03:06 | 37.58262 | -113.21758 | 34073 ft | 480 kts | 210° |
| 2026-04-21 03:06 | 37.52467 | -113.25986 | 34038 ft | 481 kts | 210° |
| 2026-04-21 03:07 | 37.46660 | -113.30211 | 33999 ft | 483 kts | 210° |
| 2026-04-21 03:07 | 37.40872 | -113.34415 | 33966 ft | 483 kts | 210° |
| 2026-04-21 03:08 | 37.35051 | -113.38637 | 33925 ft | 483 kts | 210° |
| 2026-04-21 03:08 | 37.29241 | -113.42845 | 33935 ft | 482 kts | 210° |
| 2026-04-21 03:09 | 37.23449 | -113.47030 | 33941 ft | 479 kts | 209° |
| 2026-04-21 03:09 | 37.17687 | -113.51187 | 33953 ft | 476 kts | 209° |
| 2026-04-21 03:10 | 37.11960 | -113.55311 | 33956 ft | 474 kts | 209° |
| 2026-04-21 03:10 | 37.06255 | -113.59412 | 33956 ft | 472 kts | 209° |
| 2026-04-21 03:11 | 37.00553 | -113.63504 | 33957 ft | 471 kts | 209° |
| 2026-04-21 03:11 | 36.94861 | -113.67581 | 33943 ft | 471 kts | 209° |
| 2026-04-21 03:12 | 36.89166 | -113.71654 | 33930 ft | 472 kts | 209° |
| 2026-04-21 03:12 | 36.83453 | -113.75732 | 33912 ft | 473 kts | 209° |
| 2026-04-21 03:13 | 36.77778 | -113.79776 | 33898 ft | 473 kts | 209° |
| 2026-04-21 03:13 | 36.72062 | -113.83842 | 33892 ft | 473 kts | 209° |
| 2026-04-21 03:14 | 36.66350 | -113.87899 | 33870 ft | 472 kts | 209° |
| 2026-04-21 03:14 | 36.60638 | -113.91948 | 33866 ft | 472 kts | 209° |
| 2026-04-21 03:15 | 36.54930 | -113.95989 | 33875 ft | 471 kts | 209° |
| 2026-04-21 03:15 | 36.49224 | -114.00020 | 33870 ft | 471 kts | 209° |
| 2026-04-21 03:16 | 36.43524 | -114.04041 | 33857 ft | 471 kts | 209° |
| 2026-04-21 03:16 | 36.37819 | -114.08058 | 33857 ft | 471 kts | 209° |
| 2026-04-21 03:17 | 36.32121 | -114.12063 | 33849 ft | 470 kts | 209° |
| 2026-04-21 03:17 | 36.26469 | -114.16030 | 33827 ft | 470 kts | 209° |
| 2026-04-21 03:18 | 36.20781 | -114.20016 | 33838 ft | 469 kts | 209° |
| 2026-04-21 03:18 | 36.15088 | -114.23999 | 33825 ft | 470 kts | 210° |
| 2026-04-21 03:19 | 36.09574 | -114.28327 | 33831 ft | 470 kts | 218° |
| 2026-04-21 03:19 | 36.04714 | -114.33724 | 33825 ft | 471 kts | 227° |
| 2026-04-21 03:20 | 36.00363 | -114.39788 | 33839 ft | 472 kts | 229° |
| 2026-04-21 03:20 | 35.96016 | -114.45879 | 33843 ft | 473 kts | 228° |
| 2026-04-21 03:21 | 35.91641 | -114.51950 | 33848 ft | 473 kts | 228° |
| 2026-04-21 03:21 | 35.87251 | -114.58008 | 33870 ft | 474 kts | 228° |
| 2026-04-21 03:22 | 35.82885 | -114.64019 | 33892 ft | 474 kts | 228° |
| 2026-04-21 03:22 | 35.78488 | -114.70065 | 33896 ft | 473 kts | 228° |
| 2026-04-21 03:23 | 35.74096 | -114.76094 | 33895 ft | 473 kts | 228° |
| 2026-04-21 03:23 | 35.69699 | -114.82121 | 33924 ft | 473 kts | 228° |
| 2026-04-21 03:24 | 35.65302 | -114.88137 | 33936 ft | 472 kts | 228° |
| 2026-04-21 03:24 | 35.60916 | -114.94151 | 33921 ft | 473 kts | 228° |
| 2026-04-21 03:25 | 35.56524 | -115.00171 | 33926 ft | 472 kts | 228° |
| 2026-04-21 03:25 | 35.52135 | -115.06175 | 33950 ft | 472 kts | 228° |
| 2026-04-21 03:26 | 35.47699 | -115.12126 | 33939 ft | 472 kts | 227° |
| 2026-04-21 03:26 | 35.43174 | -115.17995 | 33947 ft | 473 kts | 226° |
| 2026-04-21 03:27 | 35.38679 | -115.23818 | 33948 ft | 474 kts | 227° |
| 2026-04-21 03:27 | 35.34152 | -115.29700 | 33960 ft | 475 kts | 227° |
| 2026-04-21 03:28 | 35.29622 | -115.35586 | 33966 ft | 475 kts | 226° |
| 2026-04-21 03:28 | 35.25095 | -115.41458 | 33962 ft | 474 kts | 226° |
| 2026-04-21 03:29 | 35.20574 | -115.47311 | 33955 ft | 473 kts | 226° |
| 2026-04-21 03:29 | 35.16056 | -115.53152 | 33938 ft | 472 kts | 226° |
| 2026-04-21 03:30 | 35.11538 | -115.58979 | 33932 ft | 472 kts | 226° |
| 2026-04-21 03:30 | 35.07014 | -115.64768 | 33936 ft | 471 kts | 226° |
| 2026-04-21 03:31 | 35.02497 | -115.70531 | 33914 ft | 469 kts | 226° |
| 2026-04-21 03:31 | 34.97994 | -115.76272 | 33913 ft | 468 kts | 226° |
| 2026-04-21 03:32 | 34.93499 | -115.81998 | 33886 ft | 466 kts | 226° |
| 2026-04-21 03:32 | 34.89026 | -115.87685 | 33882 ft | 459 kts | 226° |
| 2026-04-21 03:33 | 34.84668 | -115.93218 | 33870 ft | 450 kts | 226° |
| 2026-04-21 03:33 | 34.80371 | -115.98665 | 33870 ft | 446 kts | 226° |
| 2026-04-21 03:34 | 34.76082 | -116.04096 | 33868 ft | 444 kts | 226° |
| 2026-04-21 03:34 | 34.71824 | -116.09520 | 33870 ft | 442 kts | 226° |
| 2026-04-21 03:35 | 34.67673 | -116.14807 | 33779 ft | 424 kts | 226° |
| 2026-04-21 03:35 | 34.65634 | -116.17400 | 33246 ft | 423 kts | 226° |
| 2026-04-21 03:35 | 34.63612 | -116.19970 | 32831 ft | 419 kts | 226° |
| 2026-04-21 03:36 | 34.61606 | -116.22516 | 32364 ft | 415 kts | 226° |
| 2026-04-21 03:36 | 34.60286 | -116.24191 | 32052 ft | 413 kts | 225° |
| 2026-04-21 03:36 | 34.58303 | -116.26705 | 31610 ft | 410 kts | 225° |
| 2026-04-21 03:36 | 34.56340 | -116.29193 | 31135 ft | 407 kts | 225° |
| 2026-04-21 03:37 | 34.54387 | -116.31665 | 30697 ft | 405 kts | 225° |
| 2026-04-21 03:37 | 34.52443 | -116.34124 | 30254 ft | 403 kts | 225° |
| 2026-04-21 03:37 | 34.50509 | -116.36569 | 29770 ft | 401 kts | 225° |
| 2026-04-21 03:37 | 34.48582 | -116.39003 | 29269 ft | 399 kts | 225° |
| 2026-04-21 03:38 | 34.46669 | -116.41420 | 28784 ft | 396 kts | 225° |
| 2026-04-21 03:38 | 34.44767 | -116.43819 | 28327 ft | 393 kts | 225° |
| 2026-04-21 03:38 | 34.42878 | -116.46200 | 27862 ft | 390 kts | 225° |
| 2026-04-21 03:38 | 34.41152 | -116.48720 | 27406 ft | 389 kts | 238° |
| 2026-04-21 03:39 | 34.39949 | -116.51629 | 27031 ft | 385 kts | 242° |
| 2026-04-21 03:39 | 34.38813 | -116.54551 | 26579 ft | 383 kts | 242° |
| 2026-04-21 03:39 | 34.37660 | -116.57445 | 26168 ft | 380 kts | 241° |
| 2026-04-21 03:39 | 34.36499 | -116.60304 | 25744 ft | 377 kts | 241° |
| 2026-04-21 03:40 | 34.35331 | -116.63143 | 25342 ft | 375 kts | 241° |
| 2026-04-21 03:40 | 34.34168 | -116.65960 | 24917 ft | 373 kts | 240° |
| 2026-04-21 03:40 | 34.33011 | -116.68766 | 24509 ft | 372 kts | 241° |
| 2026-04-21 03:40 | 34.31878 | -116.71568 | 24076 ft | 370 kts | 241° |
| 2026-04-21 03:41 | 34.30770 | -116.74332 | 23691 ft | 370 kts | 241° |
| 2026-04-21 03:41 | 34.29648 | -116.77134 | 23219 ft | 370 kts | 241° |
| 2026-04-21 03:41 | 34.28529 | -116.79922 | 22770 ft | 367 kts | 241° |
| 2026-04-21 03:41 | 34.27415 | -116.82691 | 22352 ft | 365 kts | 241° |
| 2026-04-21 03:42 | 34.26306 | -116.85442 | 21937 ft | 363 kts | 241° |
| 2026-04-21 03:42 | 34.25207 | -116.88169 | 21552 ft | 360 kts | 241° |
| 2026-04-21 03:42 | 34.24112 | -116.90882 | 21142 ft | 358 kts | 241° |
| 2026-04-21 03:42 | 34.23021 | -116.93579 | 20729 ft | 355 kts | 240° |
| 2026-04-21 03:43 | 34.21939 | -116.96252 | 20331 ft | 353 kts | 240° |
| 2026-04-21 03:43 | 34.20883 | -116.98925 | 19938 ft | 352 kts | 244° |
| 2026-04-21 03:43 | 34.20048 | -117.01706 | 19545 ft | 352 kts | 249° |
| 2026-04-21 03:43 | 34.19340 | -117.04537 | 19176 ft | 351 kts | 250° |
| 2026-04-21 03:44 | 34.18635 | -117.07364 | 18733 ft | 352 kts | 249° |
| 2026-04-21 03:44 | 34.17897 | -117.10183 | 18360 ft | 352 kts | 248° |
| 2026-04-21 03:44 | 34.17140 | -117.13000 | 17896 ft | 352 kts | 248° |
| 2026-04-21 03:44 | 34.16380 | -117.15802 | 17460 ft | 351 kts | 248° |
| 2026-04-21 03:45 | 34.15613 | -117.18597 | 17075 ft | 350 kts | 248° |
| 2026-04-21 03:45 | 34.14846 | -117.21379 | 16707 ft | 349 kts | 248° |
| 2026-04-21 03:45 | 34.14078 | -117.24160 | 16305 ft | 348 kts | 248° |
| 2026-04-21 03:45 | 34.13321 | -117.26904 | 15904 ft | 347 kts | 248° |
| 2026-04-21 03:46 | 34.12560 | -117.29667 | 15505 ft | 346 kts | 249° |
| 2026-04-21 03:46 | 34.11801 | -117.32420 | 15117 ft | 345 kts | 249° |
| 2026-04-21 03:46 | 34.11042 | -117.35168 | 14709 ft | 345 kts | 249° |
| 2026-04-21 03:46 | 34.10290 | -117.37912 | 14311 ft | 344 kts | 250° |
| 2026-04-21 03:47 | 34.09593 | -117.40678 | 13907 ft | 345 kts | 251° |
| 2026-04-21 03:47 | 34.08913 | -117.43447 | 13462 ft | 344 kts | 251° |
| 2026-04-21 03:47 | 34.08228 | -117.46210 | 13036 ft | 344 kts | 250° |
| 2026-04-21 03:47 | 34.07541 | -117.48961 | 12825 ft | 337 kts | 250° |
| 2026-04-21 03:48 | 34.06795 | -117.51612 | 12503 ft | 330 kts | 245° |
| 2026-04-21 03:48 | 34.05892 | -117.54120 | 12105 ft | 325 kts | 243° |
| 2026-04-21 03:48 | 34.04965 | -117.56565 | 11704 ft | 314 kts | 243° |
| 2026-04-21 03:48 | 34.04082 | -117.58918 | 11324 ft | 307 kts | 243° |
| 2026-04-21 03:49 | 34.03221 | -117.61263 | 10963 ft | 305 kts | 243° |
| 2026-04-21 03:49 | 34.02373 | -117.63599 | 10596 ft | 303 kts | 243° |
| 2026-04-21 03:49 | 34.01546 | -117.65891 | 10459 ft | 292 kts | 243° |
| 2026-04-21 03:49 | 34.00782 | -117.68058 | 10291 ft | 272 kts | 247° |
| 2026-04-21 03:50 | 34.00376 | -117.70280 | 10196 ft | 273 kts | 259° |
| 2026-04-21 03:50 | 34.00181 | -117.72561 | 10089 ft | 273 kts | 260° |
| 2026-04-21 03:50 | 33.99992 | -117.74859 | 9798 ft | 280 kts | 260° |
| 2026-04-21 03:50 | 33.99799 | -117.77166 | 9457 ft | 281 kts | 260° |
| 2026-04-21 03:51 | 33.99586 | -117.79494 | 9114 ft | 277 kts | 259° |
| 2026-04-21 03:51 | 33.99367 | -117.81779 | 8764 ft | 273 kts | 260° |
| 2026-04-21 03:51 | 33.99150 | -117.84033 | 8443 ft | 268 kts | 260° |
| 2026-04-21 03:51 | 33.98936 | -117.86250 | 8098 ft | 266 kts | 260° |
| 2026-04-21 03:52 | 33.98720 | -117.88462 | 7774 ft | 266 kts | 260° |
| 2026-04-21 03:52 | 33.98504 | -117.90684 | 7432 ft | 267 kts | 260° |
| 2026-04-21 03:52 | 33.98285 | -117.92904 | 7108 ft | 267 kts | 261° |
| 2026-04-21 03:52 | 33.98066 | -117.95125 | 6802 ft | 267 kts | 261° |
| 2026-04-21 03:53 | 33.97847 | -117.97347 | 6483 ft | 267 kts | 261° |
| 2026-04-21 03:53 | 33.97627 | -117.99570 | 6140 ft | 267 kts | 261° |
| 2026-04-21 03:53 | 33.97409 | -118.01787 | 5812 ft | 266 kts | 261° |
| 2026-04-21 03:53 | 33.97190 | -118.03990 | 5472 ft | 264 kts | 262° |
| 2026-04-21 03:54 | 33.96972 | -118.06177 | 5162 ft | 261 kts | 262° |
| 2026-04-21 03:54 | 33.96757 | -118.08339 | 4842 ft | 258 kts | 261° |
| 2026-04-21 03:54 | 33.96545 | -118.10473 | 4498 ft | 255 kts | 262° |
| 2026-04-21 03:54 | 33.96336 | -118.12566 | 4216 ft | 249 kts | 262° |
| 2026-04-21 03:55 | 33.96134 | -118.14618 | 3885 ft | 243 kts | 263° |
| 2026-04-21 03:55 | 33.95943 | -118.16585 | 3566 ft | 228 kts | 262° |
| 2026-04-21 03:55 | 33.95760 | -118.18409 | 3323 ft | 209 kts | 262° |
| 2026-04-21 03:55 | 33.95592 | -118.20062 | 3040 ft | 190 kts | 262° |
| 2026-04-21 03:56 | 33.95438 | -118.21572 | 2792 ft | 173 kts | 262° |
| 2026-04-21 03:56 | 33.95293 | -118.22984 | 2588 ft | 171 kts | 262° |
| 2026-04-21 03:56 | 33.95151 | -118.24387 | 2393 ft | 164 kts | 262° |
| 2026-04-21 03:56 | 33.95018 | -118.25694 | 2150 ft | 151 kts | 262° |
| 2026-04-21 03:57 | 33.94891 | -118.26924 | 1964 ft | 149 kts | 262° |
| 2026-04-21 03:57 | 33.94768 | -118.28145 | 1770 ft | 149 kts | 261° |
| 2026-04-21 03:57 | 33.94642 | -118.29383 | 1566 ft | 147 kts | 262° |
| 2026-04-21 03:57 | 33.94517 | -118.30604 | 1344 ft | 147 kts | 262° |
| 2026-04-21 03:58 | 33.94393 | -118.31823 | 1167 ft | 147 kts | 263° |
| 2026-04-21 03:58 | 33.94269 | -118.33053 | 968 ft | 148 kts | 262° |
| 2026-04-21 03:58 | 33.94143 | -118.34275 | 781 ft | 146 kts | 261° |
| 2026-04-21 03:58 | 33.94020 | -118.35477 | 583 ft | 145 kts | 262° |
| 2026-04-21 03:59 | 33.93897 | -118.36688 | 402 ft | 146 kts | 264° |
| 2026-04-21 03:59 | 33.93774 | -118.37904 | 222 ft | 146 kts | 263° |
| 2026-04-21 03:59 | 33.93654 | -118.39079 | 127 ft | 131 kts | 263° |
| 2026-04-21 04:00 | 33.93570 | -118.39901 | 130 ft | 6 kts | 261° |
| 2026-04-21 04:00 | 33.93533 | -118.40063 | 126 ft | 31 kts | 252° |
| 2026-04-21 04:00 | 33.93450 | -118.40178 | 125 ft | 7 kts | 156° |
| 2026-04-21 04:00 | 33.93434 | -118.40123 | 126 ft | 8 kts | 90° |
| 2026-04-21 04:01 | 33.93434 | -118.40111 | 125 ft | 8 kts | 90° |
| 2026-04-21 04:01 | 33.93447 | -118.39936 | 128 ft | 30 kts | 82° |
| 2026-04-21 04:01 | 33.93474 | -118.39685 | 127 ft | 30 kts | 84° |
| 2026-04-21 04:01 | 33.93498 | -118.39435 | 130 ft | 30 kts | 83° |
| 2026-04-21 04:02 | 33.93524 | -118.39186 | 126 ft | 30 kts | 83° |
| 2026-04-21 04:02 | 33.93541 | -118.38999 | 127 ft | 19 kts | 88° |
| 2026-04-21 04:02 | 33.93451 | -118.38910 | 128 ft | 19 kts | 172° |
| 2026-04-21 04:02 | 33.93420 | -118.38905 | 128 ft | 0 kts | 173° |